createdAt,value
2022-12-24T00:01:37.024Z,98198.91
2022-12-24T00:04:04.133Z,98206.06
2022-12-24T00:06:30.750Z,98172.66
2022-12-24T00:08:57.746Z,98146.13
2022-12-24T00:11:24.342Z,98179.63
2022-12-24T00:13:52.879Z,98181.63
2022-12-24T00:16:19.524Z,98203.22
2022-12-24T00:18:47.110Z,98139.25
2022-12-24T00:21:15.730Z,98207.31
2022-12-24T00:23:42.619Z,98198.31
2022-12-24T00:26:09.396Z,98185.13
2022-12-24T00:28:36.516Z,98205.72
2022-12-24T00:31:12.803Z,98210.53
2022-12-24T00:33:39.888Z,98208.84
2022-12-24T00:36:07.558Z,98203.50
2022-12-24T00:38:34.179Z,98183.03
2022-12-24T00:41:02.355Z,98202.06
2022-12-24T00:43:30.408Z,98198.66
2022-12-24T00:45:57.936Z,98210.22
2022-12-24T00:48:24.816Z,98207.94
2022-12-24T00:50:51.599Z,98177.38
2022-12-24T00:53:18.540Z,98175.56
2022-12-24T00:55:45.173Z,98199.53
2022-12-24T00:58:11.794Z,98190.84
2022-12-24T01:00:38.417Z,98184.09
2022-12-24T01:03:05.219Z,98188.59
2022-12-24T01:05:32.254Z,98202.75
2022-12-24T01:08:01.707Z,98198.25
2022-12-24T01:10:28.538Z,98183.22
2022-12-24T01:12:55.131Z,98172.28
2022-12-24T01:15:22.097Z,98146.91
2022-12-24T01:17:48.775Z,98156.16
2022-12-24T01:20:17.635Z,98174.31
2022-12-24T01:22:44.511Z,98168.38
2022-12-24T01:25:11.141Z,98170.75
2022-12-24T01:27:38.261Z,98125.19
2022-12-24T01:30:08.665Z,98179.63
2022-12-24T01:32:35.574Z,98119.25
2022-12-24T01:35:02.130Z,98166.72
2022-12-24T01:37:28.735Z,98162.94
2022-12-24T01:40:15.229Z,98173.06
2022-12-24T01:43:04.796Z,98167.28
2022-12-24T01:45:54.672Z,98161.41
2022-12-24T01:48:30.598Z,98159.59
2022-12-24T01:51:26.399Z,98168.47
2022-12-24T01:54:00.111Z,98167.03
2022-12-24T01:56:28.173Z,98143.19
2022-12-24T01:59:01.141Z,98148.38
2022-12-24T02:01:27.931Z,98158.91
2022-12-24T02:03:54.665Z,98156.38
2022-12-24T02:06:22.640Z,98154.94
2022-12-24T02:08:49.584Z,98131.97
2022-12-24T02:11:19.441Z,98170.66
2022-12-24T02:13:55.326Z,98162.56
2022-12-24T02:16:28.263Z,98155.13
2022-12-24T02:19:13.091Z,98151.91
2022-12-24T02:21:39.754Z,98165.06
2022-12-24T02:24:12.604Z,98161.97
2022-12-24T02:26:45.435Z,98168.41
2022-12-24T02:29:37.866Z,98174.59
2022-12-24T02:32:17.439Z,98152.69
2022-12-24T02:35:02.691Z,98161.25
2022-12-24T02:37:37.165Z,98157.63
2022-12-24T02:40:15.715Z,98171.47
2022-12-24T02:42:48.862Z,98161.34
2022-12-24T02:45:21.039Z,98137.06
2022-12-24T02:47:50.974Z,98170.31
2022-12-24T02:50:18.753Z,98167.69
2022-12-24T02:52:47.467Z,98167.28
2022-12-24T02:55:33.136Z,98166.72
2022-12-24T02:58:14.943Z,98169.78
2022-12-24T03:01:16.934Z,98170.06
2022-12-24T03:03:57.643Z,98161.34
2022-12-24T03:06:37.747Z,98130.16
2022-12-24T03:09:18.021Z,98169.47
2022-12-24T03:11:51.184Z,98174.50
2022-12-24T03:14:18.666Z,98141.34
2022-12-24T03:16:46.286Z,98155.69
2022-12-24T03:19:16.314Z,98177.88
2022-12-24T03:21:44.651Z,98136.78
2022-12-24T03:24:11.571Z,98105.44
2022-12-24T03:26:40.004Z,98182.53
2022-12-24T03:29:08.521Z,98178.75
2022-12-24T03:31:50.153Z,98165.00
2022-12-24T03:34:18.184Z,98176.34
2022-12-24T03:36:45.002Z,98174.78
2022-12-24T03:39:11.600Z,98159.47
2022-12-24T03:41:38.358Z,98183.19
2022-12-24T03:44:04.998Z,98173.41
2022-12-24T03:46:32.983Z,98163.00
2022-12-24T03:48:59.858Z,98147.94
2022-12-24T03:51:27.014Z,98128.28
2022-12-24T03:53:55.242Z,98153.53
2022-12-24T03:56:22.997Z,98131.50
2022-12-24T03:58:49.955Z,98177.59
2022-12-24T04:01:17.550Z,98152.59
2022-12-24T04:03:44.755Z,98133.63
2022-12-24T04:06:14.704Z,98143.03
2022-12-24T04:08:41.744Z,98167.72
2022-12-24T04:11:11.102Z,98125.66
2022-12-24T04:13:38.384Z,98177.94
2022-12-24T04:16:11.196Z,98169.63
2022-12-24T04:18:39.280Z,98173.69
2022-12-24T04:21:07.324Z,98171.03
2022-12-24T04:23:35.987Z,98187.41
2022-12-24T04:26:04.284Z,98177.59
2022-12-24T04:28:31.363Z,98167.94
2022-12-24T04:31:06.050Z,98163.16
2022-12-24T04:33:32.907Z,98139.81
2022-12-24T04:36:01.194Z,98148.25
2022-12-24T04:38:29.070Z,98177.69
2022-12-24T04:41:23.148Z,98169.97
2022-12-24T04:43:51.820Z,98168.44
2022-12-24T04:46:21.650Z,98151.19
2022-12-24T04:48:50.099Z,98162.50
2022-12-24T04:51:17.684Z,98162.31
2022-12-24T04:53:44.981Z,98181.41
2022-12-24T04:56:17.164Z,98188.84
2022-12-24T04:58:44.831Z,98154.31
2022-12-24T05:01:18.049Z,98177.38
2022-12-24T05:03:44.933Z,98166.28
2022-12-24T05:06:14.386Z,98161.94
2022-12-24T05:08:41.447Z,98167.13
2022-12-24T05:11:08.257Z,98154.59
2022-12-24T05:13:42.495Z,98177.31
2022-12-24T05:16:13.596Z,98195.06
2022-12-24T05:18:40.487Z,98175.00
2022-12-24T05:21:14.039Z,98186.25
2022-12-24T05:23:59.107Z,98135.25
2022-12-24T05:26:34.671Z,98185.63
2022-12-24T05:29:02.639Z,98190.47
2022-12-24T05:31:31.573Z,98157.25
2022-12-24T05:33:58.545Z,98196.00
2022-12-24T05:36:25.500Z,98190.56
2022-12-24T05:38:52.859Z,98197.88
2022-12-24T05:41:19.643Z,98189.44
2022-12-24T05:43:46.861Z,98191.13
2022-12-24T05:46:17.394Z,98168.53
2022-12-24T05:48:44.924Z,98156.47
2022-12-24T05:51:13.780Z,98176.69
2022-12-24T05:53:40.739Z,98211.47
2022-12-24T05:56:13.203Z,98211.28
2022-12-24T05:58:43.181Z,98214.59
2022-12-24T06:01:11.270Z,98218.22
2022-12-24T06:03:38.587Z,98210.78
2022-12-24T06:06:21.118Z,98182.97
2022-12-24T06:08:49.092Z,98238.41
2022-12-24T06:11:18.124Z,98234.75
2022-12-24T06:13:45.075Z,98221.81
2022-12-24T06:16:14.926Z,98211.94
2022-12-24T06:18:42.530Z,98234.81
2022-12-24T06:21:09.568Z,98220.38
2022-12-24T06:23:38.636Z,98245.59
2022-12-24T06:26:10.515Z,98224.38
2022-12-24T06:28:38.482Z,98233.59
2022-12-24T06:31:07.022Z,98241.88
2022-12-24T06:33:34.855Z,98251.75
2022-12-24T06:36:02.128Z,98209.38
2022-12-24T06:38:30.996Z,98201.00
2022-12-24T06:40:57.644Z,98242.09
2022-12-24T06:43:24.325Z,98223.00
2022-12-24T06:45:51.179Z,98239.31
2022-12-24T06:48:18.030Z,98218.31
2022-12-24T06:50:44.713Z,98230.38
2022-12-24T06:53:11.650Z,98185.75
2022-12-24T06:55:38.438Z,98226.50
2022-12-24T06:58:06.274Z,98221.50
2022-12-24T07:00:33.191Z,98221.78
2022-12-24T07:03:00.008Z,98207.50
2022-12-24T07:05:27.509Z,98223.63
2022-12-24T07:07:54.113Z,98200.78
2022-12-24T07:10:21.001Z,98204.56
2022-12-24T07:12:48.713Z,98230.66
2022-12-24T07:15:16.653Z,98212.00
2022-12-24T07:17:43.928Z,98218.44
2022-12-24T07:20:14.669Z,98233.03
2022-12-24T07:22:41.988Z,98238.63
2022-12-24T07:25:09.370Z,98204.28
2022-12-24T07:27:36.393Z,98212.03
2022-12-24T07:30:03.981Z,98218.03
2022-12-24T07:32:30.605Z,98207.03
2022-12-24T07:34:57.364Z,98203.66
2022-12-24T07:37:24.100Z,98240.09
2022-12-24T07:39:50.653Z,98214.63
2022-12-24T07:42:17.366Z,98232.69
2022-12-24T07:44:44.010Z,98221.81
2022-12-24T07:47:10.638Z,98215.63
2022-12-24T07:49:37.562Z,98208.38
2022-12-24T07:52:04.834Z,98207.97
2022-12-24T07:54:31.665Z,98216.16
2022-12-24T07:56:58.350Z,98231.69
2022-12-24T07:59:25.031Z,98212.97
2022-12-24T08:01:51.966Z,98242.88
2022-12-24T08:04:18.886Z,98269.75
2022-12-24T08:06:45.647Z,98239.44
2022-12-24T08:09:14.335Z,98239.66
2022-12-24T08:11:44.810Z,98266.25
2022-12-24T08:14:13.082Z,98228.59
2022-12-24T08:16:39.719Z,98265.91
2022-12-24T08:19:06.444Z,98242.59
2022-12-24T08:21:33.024Z,98271.59
2022-12-24T08:23:59.682Z,98233.03
2022-12-24T08:26:26.308Z,98241.72
2022-12-24T08:28:53.004Z,98272.25
2022-12-24T08:31:19.915Z,98268.34
2022-12-24T08:33:46.663Z,98261.53
2022-12-24T08:36:13.291Z,98248.38
2022-12-24T08:38:40.104Z,98262.44
2022-12-24T08:41:06.839Z,98246.44
2022-12-24T08:43:33.556Z,98245.34
2022-12-24T08:46:05.594Z,98261.31
2022-12-24T08:48:33.296Z,98233.56
2022-12-24T08:50:59.906Z,98220.09
2022-12-24T08:53:26.549Z,98237.53
2022-12-24T08:55:56.172Z,98226.66
2022-12-24T08:58:23.146Z,98233.03
2022-12-24T09:00:49.970Z,98267.31
2022-12-24T09:03:20.705Z,98238.06
2022-12-24T09:05:53.658Z,98234.16
2022-12-24T09:08:21.354Z,98241.97
2022-12-24T09:10:48.022Z,98227.75
2022-12-24T09:13:14.660Z,98213.06
2022-12-24T09:15:41.353Z,98241.56
2022-12-24T09:18:08.071Z,98260.75
2022-12-24T09:20:34.784Z,98221.25
2022-12-24T09:23:01.426Z,98239.25
2022-12-24T09:25:28.145Z,98252.06
2022-12-24T09:27:54.800Z,98234.22
2022-12-24T09:30:21.578Z,98249.44
2022-12-24T09:32:48.284Z,98252.38
2022-12-24T09:35:14.931Z,98236.06
2022-12-24T09:37:41.597Z,98249.13
2022-12-24T09:40:22.721Z,98234.06
2022-12-24T09:42:53.695Z,98272.19
2022-12-24T09:45:31.716Z,98274.28
2022-12-24T09:48:05.676Z,98268.25
2022-12-24T09:50:41.559Z,98239.41
2022-12-24T09:53:19.747Z,98248.81
2022-12-24T09:55:51.188Z,98262.59
2022-12-24T09:58:33.882Z,98231.69
2022-12-24T10:01:00.593Z,98208.94
2022-12-24T10:03:27.709Z,98244.63
2022-12-24T10:06:06.858Z,98248.31
2022-12-24T10:08:47.590Z,98255.09
2022-12-24T10:11:23.697Z,98248.88
2022-12-24T10:14:15.332Z,98256.25
2022-12-24T10:17:04.425Z,98232.56
2022-12-24T10:19:49.921Z,98253.41
2022-12-24T10:22:46.791Z,98258.78
2022-12-24T10:25:37.958Z,98251.56
2022-12-24T10:28:14.522Z,98252.63
2022-12-24T10:30:42.855Z,98249.03
2022-12-24T10:33:21.055Z,98244.63
2022-12-24T10:35:55.009Z,98228.16
2022-12-24T10:38:21.831Z,98211.34
2022-12-24T10:40:55.133Z,98223.75
2022-12-24T10:43:25.054Z,98242.16
2022-12-24T10:45:56.027Z,98185.81
2022-12-24T10:48:50.592Z,98230.81
2022-12-24T10:51:32.858Z,98222.09
2022-12-24T10:54:18.269Z,98198.94
2022-12-24T10:56:53.168Z,98219.84
2022-12-24T10:59:42.008Z,98241.06
2022-12-24T11:02:40.009Z,98235.09
2022-12-24T11:05:28.875Z,98229.81
2022-12-24T11:08:14.638Z,98204.13
2022-12-24T11:10:45.345Z,98203.25
2022-12-24T11:13:44.565Z,98214.13
2022-12-24T11:16:23.553Z,98209.88
2022-12-24T11:18:55.788Z,98208.88
2022-12-24T11:21:31.604Z,98208.25
2022-12-24T11:24:13.520Z,98220.78
2022-12-24T11:26:43.372Z,98214.94
2022-12-24T11:29:21.403Z,98212.31
2022-12-24T11:31:49.360Z,98201.38
2022-12-24T11:34:28.373Z,98202.84
2022-12-24T11:37:14.986Z,98213.50
2022-12-24T11:39:46.533Z,98219.66
2022-12-24T11:42:35.456Z,98220.16
2022-12-24T11:45:06.438Z,98187.13
2022-12-24T11:47:40.901Z,98194.91
2022-12-24T11:50:22.736Z,98210.41
2022-12-24T11:53:08.272Z,98204.56
2022-12-24T11:55:46.033Z,98208.75
2022-12-24T11:58:17.366Z,98203.19
2022-12-24T12:00:47.715Z,98205.78
2022-12-24T12:03:29.787Z,98210.50
2022-12-24T12:06:00.616Z,98204.19
2022-12-24T12:08:29.132Z,98171.53
2022-12-24T12:10:58.986Z,98189.88
2022-12-24T12:13:33.653Z,98198.44
2022-12-24T12:17:04.014Z,98191.25
2022-12-24T12:19:38.441Z,98185.63
2022-12-24T12:22:15.829Z,98181.78
2022-12-24T12:24:49.866Z,98201.28
2022-12-24T12:27:32.648Z,98204.72
2022-12-24T12:30:04.852Z,98187.97
2022-12-24T12:32:59.516Z,98218.47
2022-12-24T12:35:31.951Z,98186.78
2022-12-24T12:38:11.607Z,98226.53
2022-12-24T12:40:51.623Z,98182.44
2022-12-24T12:43:49.139Z,98217.09
2022-12-24T12:46:47.226Z,98216.28
2022-12-24T12:49:41.001Z,98191.09
2022-12-24T12:52:17.181Z,98195.94
2022-12-24T12:54:52.958Z,98189.91
2022-12-24T12:57:24.642Z,98182.34
2022-12-24T13:00:02.208Z,98162.75
2022-12-24T13:02:50.877Z,98183.72
2022-12-24T13:05:48.121Z,98168.59
2022-12-24T13:08:23.968Z,98189.03
2022-12-24T13:11:05.616Z,98193.53
2022-12-24T13:13:51.951Z,98154.38
2022-12-24T13:16:54.091Z,98191.56
2022-12-24T13:19:39.043Z,98204.34
2022-12-24T13:22:14.280Z,98200.13
2022-12-24T13:24:51.451Z,98202.06
2022-12-24T13:27:24.608Z,98210.63
2022-12-24T13:29:59.998Z,98155.25
2022-12-24T13:32:39.479Z,98200.22
2022-12-24T13:35:21.014Z,98207.59
2022-12-24T13:37:48.716Z,98212.72
2022-12-24T13:40:33.473Z,98188.34
2022-12-24T13:43:04.957Z,98204.88
2022-12-24T13:45:31.653Z,98207.41
2022-12-24T13:48:13.101Z,98202.38
2022-12-24T13:50:48.086Z,98204.38
2022-12-24T13:53:36.809Z,98180.06
2022-12-24T13:56:09.214Z,98197.28
2022-12-24T13:58:43.102Z,98180.06
2022-12-24T14:01:13.410Z,98181.31
2022-12-24T14:03:52.855Z,98179.44
2022-12-24T14:06:41.312Z,98177.06
2022-12-24T14:09:10.020Z,98191.50
2022-12-24T14:12:01.632Z,98194.44
2022-12-24T14:14:30.147Z,98189.34
2022-12-24T14:17:12.153Z,98195.56
2022-12-24T14:19:45.042Z,98190.56
2022-12-24T14:22:11.588Z,98199.31
2022-12-24T14:24:43.002Z,98202.38
2022-12-24T14:27:45.992Z,98207.81
2022-12-24T14:30:32.221Z,98206.16
2022-12-24T14:32:58.788Z,98206.50
2022-12-24T14:35:37.109Z,98228.38
2022-12-24T14:38:07.729Z,98231.13
2022-12-24T14:40:42.633Z,98234.97
2022-12-24T14:43:56.464Z,98237.88
2022-12-24T14:46:48.273Z,98239.25
2022-12-24T14:49:39.968Z,98236.63
2022-12-24T14:53:05.295Z,98237.34
2022-12-24T14:55:40.077Z,98231.31
2022-12-24T14:58:22.062Z,98226.94
2022-12-24T15:00:49.912Z,98214.50
2022-12-24T15:03:19.124Z,98226.94
2022-12-24T15:05:51.021Z,98228.47
2022-12-24T15:08:31.001Z,98221.97
2022-12-24T15:11:02.292Z,98238.44
2022-12-24T15:13:37.349Z,98220.00
2022-12-24T15:16:08.551Z,98229.56
2022-12-24T15:18:39.384Z,98229.03
2022-12-24T15:21:15.169Z,98226.53
2022-12-24T15:23:47.580Z,98226.69
2022-12-24T15:26:14.124Z,98223.41
2022-12-24T15:28:40.789Z,98226.94
2022-12-24T15:31:15.207Z,98226.13
2022-12-24T15:33:45.298Z,98235.69
2022-12-24T15:36:13.808Z,98226.47
2022-12-24T15:38:46.445Z,98229.16
2022-12-24T15:41:20.864Z,98223.81
2022-12-24T15:43:49.629Z,98228.16
2022-12-24T15:46:20.364Z,98230.72
2022-12-24T15:48:48.684Z,98230.06
2022-12-24T15:51:23.351Z,98235.94
2022-12-24T15:53:55.217Z,98237.25
2022-12-24T15:56:32.577Z,98235.78
2022-12-24T15:59:32.167Z,98237.00
2022-12-24T16:02:31.739Z,98241.03
2022-12-24T16:05:26.398Z,98242.00
2022-12-24T16:08:12.571Z,98249.72
2022-12-24T16:11:00.673Z,98249.59
2022-12-24T16:13:32.534Z,98244.38
2022-12-24T16:16:05.498Z,98243.50
2022-12-24T16:18:51.844Z,98250.44
2022-12-24T16:21:40.773Z,98254.47
2022-12-24T16:24:28.655Z,98252.78
2022-12-24T16:26:56.474Z,98247.56
2022-12-24T16:29:27.538Z,98256.66
2022-12-24T16:31:59.319Z,98256.97
2022-12-24T16:34:32.093Z,98254.97
2022-12-24T16:36:59.789Z,98258.66
2022-12-24T16:39:31.867Z,98254.78
2022-12-24T16:42:19.444Z,98260.16
2022-12-24T16:44:46.944Z,98264.38
2022-12-24T16:47:37.235Z,98262.38
2022-12-24T16:50:09.049Z,98258.03
2022-12-24T16:52:35.757Z,98244.06
2022-12-24T16:55:02.375Z,98253.47
2022-12-24T16:57:28.956Z,98265.06
2022-12-24T16:59:55.971Z,98269.25
2022-12-24T17:02:24.827Z,98268.25
2022-12-24T17:04:51.736Z,98268.25
2022-12-24T17:07:21.131Z,98267.25
2022-12-24T17:09:47.830Z,98271.28
2022-12-24T17:12:14.875Z,98283.03
2022-12-24T17:14:42.448Z,98278.84
2022-12-24T17:17:21.057Z,98281.53
2022-12-24T17:19:47.661Z,98291.63
2022-12-24T17:22:14.310Z,98288.75
2022-12-24T17:24:41.114Z,98286.91
2022-12-24T17:27:07.829Z,98276.00
2022-12-24T17:29:35.547Z,98277.34
2022-12-24T17:32:02.157Z,98288.75
2022-12-24T17:34:29.065Z,98287.41
2022-12-24T17:36:55.730Z,98283.38
2022-12-24T17:39:27.660Z,98291.09
2022-12-24T17:41:54.896Z,98290.28
2022-12-24T17:44:21.554Z,98294.97
2022-12-24T17:46:48.174Z,98291.09
2022-12-24T17:49:14.914Z,98289.44
2022-12-24T17:51:45.598Z,98296.66
2022-12-24T17:54:13.670Z,98291.94
2022-12-24T17:56:40.350Z,98293.47
2022-12-24T17:59:07.083Z,98294.63
2022-12-24T18:01:33.816Z,98297.50
2022-12-24T18:04:02.723Z,98295.81
2022-12-24T18:06:29.563Z,98298.34
2022-12-24T18:08:57.136Z,98291.41
2022-12-24T18:11:29.435Z,98286.41
2022-12-24T18:13:57.309Z,98293.09
2022-12-24T18:16:26.986Z,98292.63
2022-12-24T18:18:54.355Z,98297.00
2022-12-24T18:21:23.065Z,98304.22
2022-12-24T18:23:51.393Z,98302.53
2022-12-24T18:26:19.137Z,98299.84
2022-12-24T18:28:45.930Z,98303.88
2022-12-24T18:31:18.579Z,98301.53
2022-12-24T18:33:46.576Z,98301.84
2022-12-24T18:36:14.262Z,98307.56
2022-12-24T18:38:41.445Z,98308.56
2022-12-24T18:41:17.067Z,98309.25
2022-12-24T18:43:44.017Z,98312.09
2022-12-24T18:46:13.523Z,98302.19
2022-12-24T18:48:40.935Z,98313.94
2022-12-24T18:51:09.748Z,98318.66
2022-12-24T18:53:37.150Z,98312.09
2022-12-24T18:56:11.284Z,98325.72
2022-12-24T18:58:38.058Z,98320.66
2022-12-24T19:01:19.583Z,98343.19
2022-12-24T19:03:47.271Z,98333.59
2022-12-24T19:06:13.896Z,98328.91
2022-12-24T19:08:58.225Z,98339.47
2022-12-24T19:11:27.081Z,98337.13
2022-12-24T19:13:53.830Z,98318.50
2022-12-24T19:16:21.439Z,98327.56
2022-12-24T19:18:48.352Z,98334.78
2022-12-24T19:21:17.590Z,98337.81
2022-12-24T19:23:45.161Z,98341.50
2022-12-24T19:26:13.248Z,98338.47
2022-12-24T19:28:39.974Z,98326.03
2022-12-24T19:31:09.188Z,98335.78
2022-12-24T19:33:47.491Z,98331.25
2022-12-24T19:36:20.348Z,98336.13
2022-12-24T19:38:47.347Z,98345.53
2022-12-24T19:41:16.538Z,98347.88
2022-12-24T19:43:45.859Z,98354.59
2022-12-24T19:46:15.263Z,98348.38
2022-12-24T19:48:42.879Z,98339.31
2022-12-24T19:51:11.958Z,98357.63
2022-12-24T19:53:39.329Z,98354.78
2022-12-24T19:56:06.714Z,98365.00
2022-12-24T19:58:33.313Z,98348.22
2022-12-24T20:01:15.225Z,98362.94
2022-12-24T20:03:42.745Z,98369.25
2022-12-24T20:06:09.354Z,98377.72
2022-12-24T20:08:37.175Z,98382.53
2022-12-24T20:11:06.646Z,98383.13
2022-12-24T20:13:34.205Z,98391.66
2022-12-24T20:16:20.789Z,98392.50
2022-12-24T20:18:54.692Z,98389.59
2022-12-24T20:21:22.000Z,98388.13
2022-12-24T20:23:48.909Z,98384.47
2022-12-24T20:26:16.995Z,98389.34
2022-12-24T20:28:43.843Z,98395.03
2022-12-24T20:31:20.000Z,98393.03
2022-12-24T20:33:47.321Z,98391.19
2022-12-24T20:36:19.104Z,98396.25
2022-12-24T20:38:46.305Z,98374.94
2022-12-24T20:41:14.677Z,98403.13
2022-12-24T20:43:47.833Z,98404.16
2022-12-24T20:46:16.319Z,98403.94
2022-12-24T20:48:42.997Z,98399.38
2022-12-24T20:51:21.013Z,98393.84
2022-12-24T20:53:50.955Z,98385.88
2022-12-24T20:56:18.289Z,98376.97
2022-12-24T20:58:45.553Z,98386.00
2022-12-24T21:01:15.688Z,98378.28
2022-12-24T21:03:42.905Z,98390.59
2022-12-24T21:06:10.354Z,98388.41
2022-12-24T21:08:37.421Z,98393.59
2022-12-24T21:11:22.596Z,98379.00
2022-12-24T21:13:49.267Z,98393.88
2022-12-24T21:16:15.882Z,98394.00
2022-12-24T21:18:42.544Z,98387.97
2022-12-24T21:21:09.152Z,98391.28
2022-12-24T21:23:35.719Z,98389.75
2022-12-24T21:26:04.495Z,98392.94
2022-12-24T21:28:32.132Z,98394.47
2022-12-24T21:30:58.806Z,98403.81
2022-12-24T21:33:25.518Z,98406.84
2022-12-24T21:35:58.762Z,98381.16
2022-12-24T21:38:25.874Z,98412.97
2022-12-24T21:41:03.741Z,98411.31
2022-12-24T21:43:31.604Z,98408.81
2022-12-24T21:45:58.623Z,98408.97
2022-12-24T21:48:44.907Z,98411.66
2022-12-24T21:51:11.941Z,98416.34
2022-12-24T21:53:57.337Z,98414.53
2022-12-24T21:56:23.980Z,98431.38
2022-12-24T21:58:51.469Z,98426.19
2022-12-24T22:01:18.886Z,98429.78
2022-12-24T22:03:49.306Z,98430.63
2022-12-24T22:06:35.490Z,98442.38
2022-12-24T22:09:21.374Z,98443.06
2022-12-24T22:11:53.872Z,98438.31
2022-12-24T22:14:21.084Z,98443.34
2022-12-24T22:16:47.794Z,98445.97
2022-12-24T22:19:14.476Z,98449.44
2022-12-24T22:21:41.075Z,98459.75
2022-12-24T22:24:08.536Z,98459.41
2022-12-24T22:26:35.092Z,98466.09
2022-12-24T22:29:04.785Z,98457.72
2022-12-24T22:31:32.632Z,98468.03
2022-12-24T22:34:00.220Z,98460.34
2022-12-24T22:36:27.147Z,98455.44
2022-12-24T22:38:53.785Z,98456.34
2022-12-24T22:41:20.346Z,98444.91
2022-12-24T22:43:48.810Z,98458.94
2022-12-24T22:46:15.780Z,98452.94
2022-12-24T22:48:43.896Z,98446.25
2022-12-24T22:51:19.481Z,98455.81
2022-12-24T22:53:46.570Z,98468.50
2022-12-24T22:56:20.767Z,98451.19
2022-12-24T22:58:48.268Z,98461.59
2022-12-24T23:01:14.963Z,98453.91
2022-12-24T23:03:41.664Z,98452.59
2022-12-24T23:06:08.397Z,98453.97
2022-12-24T23:08:37.335Z,98461.34
2022-12-24T23:11:12.385Z,98452.50
2022-12-24T23:14:00.862Z,98457.22
2022-12-24T23:16:28.695Z,98447.78
2022-12-24T23:18:57.383Z,98446.66
2022-12-24T23:21:24.790Z,98438.91
2022-12-24T23:23:51.674Z,98435.38
2022-12-24T23:26:20.135Z,98439.28
2022-12-24T23:28:48.258Z,98428.69
2022-12-24T23:31:16.869Z,98436.41
2022-12-24T23:33:43.473Z,98426.13
2022-12-24T23:36:10.268Z,98428.47
2022-12-24T23:38:36.875Z,98418.38
2022-12-24T23:41:05.822Z,98432.31
2022-12-24T23:43:33.598Z,98424.88
2022-12-24T23:46:02.339Z,98432.72
2022-12-24T23:48:29.310Z,98421.94
2022-12-24T23:51:07.549Z,98427.94
2022-12-24T23:53:34.444Z,98424.56
2022-12-24T23:56:01.482Z,98427.50
2022-12-24T23:58:28.172Z,98428.19
